sensor_id;sensor_type;location;lat;lon;timestamp;P1;durP1;ratioP1;P2;durP2;ratioP2
46399;SDS011;32104;50.838;4.388;2022-07-23T00:00:39;14.35;;;6.53;;
46399;SDS011;32104;50.838;4.388;2022-07-23T00:03:05;10.32;;;5.53;;
46399;SDS011;32104;50.838;4.388;2022-07-23T00:05:31;9.63;;;5.65;;
46399;SDS011;32104;50.838;4.388;2022-07-23T00:07:58;13.07;;;6.38;;
46399;SDS011;32104;50.838;4.388;2022-07-23T00:10:23;10.98;;;6.47;;
46399;SDS011;32104;50.838;4.388;2022-07-23T00:12:49;10.82;;;6.00;;
46399;SDS011;32104;50.838;4.388;2022-07-23T00:15:17;12.07;;;6.95;;
46399;SDS011;32104;50.838;4.388;2022-07-23T00:17:43;12.98;;;6.38;;
46399;SDS011;32104;50.838;4.388;2022-07-23T00:22:46;16.45;;;7.93;;
46399;SDS011;32104;50.838;4.388;2022-07-23T00:25:16;14.65;;;8.30;;
46399;SDS011;32104;50.838;4.388;2022-07-23T00:27:45;13.90;;;7.53;;
46399;SDS011;32104;50.838;4.388;2022-07-23T00:30:15;15.73;;;7.63;;
46399;SDS011;32104;50.838;4.388;2022-07-23T00:32:57;12.10;;;7.40;;
46399;SDS011;32104;50.838;4.388;2022-07-23T00:35:36;11.77;;;7.15;;
46399;SDS011;32104;50.838;4.388;2022-07-23T00:38:06;13.75;;;7.60;;
46399;SDS011;32104;50.838;4.388;2022-07-23T00:40:34;16.20;;;8.15;;
46399;SDS011;32104;50.838;4.388;2022-07-23T00:43:02;20.30;;;8.32;;
46399;SDS011;32104;50.838;4.388;2022-07-23T00:45:32;16.30;;;8.30;;
46399;SDS011;32104;50.838;4.388;2022-07-23T00:47:59;17.65;;;8.52;;
46399;SDS011;32104;50.838;4.388;2022-07-23T00:50:26;16.67;;;8.48;;
46399;SDS011;32104;50.838;4.388;2022-07-23T00:52:52;14.02;;;8.15;;
46399;SDS011;32104;50.838;4.388;2022-07-23T00:55:18;15.93;;;8.07;;
46399;SDS011;32104;50.838;4.388;2022-07-23T00:57:44;14.93;;;7.70;;
46399;SDS011;32104;50.838;4.388;2022-07-23T01:00:18;15.98;;;7.40;;
46399;SDS011;32104;50.838;4.388;2022-07-23T01:02:43;12.60;;;7.38;;
46399;SDS011;32104;50.838;4.388;2022-07-23T01:05:12;12.57;;;7.68;;
46399;SDS011;32104;50.838;4.388;2022-07-23T01:07:38;13.20;;;7.20;;
46399;SDS011;32104;50.838;4.388;2022-07-23T01:10:10;14.90;;;8.23;;
46399;SDS011;32104;50.838;4.388;2022-07-23T01:12:54;12.20;;;7.43;;
46399;SDS011;32104;50.838;4.388;2022-07-23T01:15:25;15.07;;;7.63;;
46399;SDS011;32104;50.838;4.388;2022-07-23T01:20:18;13.13;;;7.85;;
46399;SDS011;32104;50.838;4.388;2022-07-23T01:22:44;14.75;;;8.15;;
46399;SDS011;32104;50.838;4.388;2022-07-23T01:25:11;17.08;;;7.93;;
46399;SDS011;32104;50.838;4.388;2022-07-23T01:27:37;16.80;;;8.48;;
46399;SDS011;32104;50.838;4.388;2022-07-23T01:30:03;15.23;;;8.50;;
46399;SDS011;32104;50.838;4.388;2022-07-23T01:32:29;14.88;;;9.20;;
46399;SDS011;32104;50.838;4.388;2022-07-23T01:34:57;15.18;;;8.77;;
46399;SDS011;32104;50.838;4.388;2022-07-23T01:37:27;14.88;;;8.23;;
46399;SDS011;32104;50.838;4.388;2022-07-23T01:39:56;19.25;;;9.13;;
46399;SDS011;32104;50.838;4.388;2022-07-23T01:42:22;15.95;;;8.90;;
46399;SDS011;32104;50.838;4.388;2022-07-23T01:44:48;19.50;;;9.48;;
46399;SDS011;32104;50.838;4.388;2022-07-23T01:47:16;18.50;;;10.05;;
46399;SDS011;32104;50.838;4.388;2022-07-23T01:49:42;16.58;;;9.80;;
46399;SDS011;32104;50.838;4.388;2022-07-23T01:52:08;17.15;;;9.02;;
46399;SDS011;32104;50.838;4.388;2022-07-23T01:54:37;15.48;;;8.93;;
46399;SDS011;32104;50.838;4.388;2022-07-23T01:57:05;15.93;;;8.70;;
46399;SDS011;32104;50.838;4.388;2022-07-23T01:59:32;15.10;;;8.70;;
46399;SDS011;32104;50.838;4.388;2022-07-23T02:01:58;17.10;;;8.55;;
46399;SDS011;32104;50.838;4.388;2022-07-23T02:04:24;16.52;;;8.73;;
46399;SDS011;32104;50.838;4.388;2022-07-23T02:06:54;17.50;;;8.93;;
46399;SDS011;32104;50.838;4.388;2022-07-23T02:09:20;16.13;;;8.35;;
46399;SDS011;32104;50.838;4.388;2022-07-23T02:11:46;18.33;;;9.63;;
46399;SDS011;32104;50.838;4.388;2022-07-23T02:14:12;16.58;;;9.25;;
46399;SDS011;32104;50.838;4.388;2022-07-23T02:16:37;17.60;;;8.65;;
46399;SDS011;32104;50.838;4.388;2022-07-23T02:19:08;16.00;;;8.73;;
46399;SDS011;32104;50.838;4.388;2022-07-23T02:21:34;19.02;;;8.93;;
46399;SDS011;32104;50.838;4.388;2022-07-23T02:24:00;17.05;;;9.10;;
46399;SDS011;32104;50.838;4.388;2022-07-23T02:26:32;13.75;;;8.90;;
46399;SDS011;32104;50.838;4.388;2022-07-23T02:29:02;14.98;;;8.80;;
46399;SDS011;32104;50.838;4.388;2022-07-23T02:31:29;19.00;;;9.20;;
46399;SDS011;32104;50.838;4.388;2022-07-23T02:33:56;15.40;;;8.68;;
46399;SDS011;32104;50.838;4.388;2022-07-23T02:36:22;22.00;;;9.10;;
46399;SDS011;32104;50.838;4.388;2022-07-23T02:38:48;16.70;;;8.88;;
46399;SDS011;32104;50.838;4.388;2022-07-23T02:41:14;19.25;;;8.88;;
46399;SDS011;32104;50.838;4.388;2022-07-23T02:43:43;18.77;;;9.80;;
46399;SDS011;32104;50.838;4.388;2022-07-23T02:46:09;14.68;;;8.45;;
46399;SDS011;32104;50.838;4.388;2022-07-23T02:48:36;19.30;;;8.27;;
46399;SDS011;32104;50.838;4.388;2022-07-23T02:51:04;16.85;;;8.00;;
46399;SDS011;32104;50.838;4.388;2022-07-23T02:53:30;17.70;;;8.48;;
46399;SDS011;32104;50.838;4.388;2022-07-23T02:55:56;16.95;;;7.82;;
46399;SDS011;32104;50.838;4.388;2022-07-23T02:58:31;18.13;;;8.98;;
46399;SDS011;32104;50.838;4.388;2022-07-23T03:00:57;18.20;;;9.27;;
46399;SDS011;32104;50.838;4.388;2022-07-23T03:03:24;19.65;;;8.70;;
46399;SDS011;32104;50.838;4.388;2022-07-23T03:05:50;17.70;;;8.35;;
46399;SDS011;32104;50.838;4.388;2022-07-23T03:08:16;17.38;;;9.60;;
46399;SDS011;32104;50.838;4.388;2022-07-23T03:10:41;18.52;;;8.18;;
46399;SDS011;32104;50.838;4.388;2022-07-23T03:13:07;17.90;;;9.23;;
46399;SDS011;32104;50.838;4.388;2022-07-23T03:15:36;13.73;;;8.30;;
46399;SDS011;32104;50.838;4.388;2022-07-23T03:18:02;16.35;;;8.30;;
46399;SDS011;32104;50.838;4.388;2022-07-23T03:20:29;15.93;;;8.98;;
46399;SDS011;32104;50.838;4.388;2022-07-23T03:22:54;20.55;;;9.70;;
46399;SDS011;32104;50.838;4.388;2022-07-23T03:25:20;22.73;;;9.70;;
46399;SDS011;32104;50.838;4.388;2022-07-23T03:27:47;18.30;;;9.30;;
46399;SDS011;32104;50.838;4.388;2022-07-23T03:30:16;15.55;;;8.70;;
46399;SDS011;32104;50.838;4.388;2022-07-23T03:32:42;21.98;;;9.68;;
46399;SDS011;32104;50.838;4.388;2022-07-23T03:35:08;21.20;;;10.00;;
46399;SDS011;32104;50.838;4.388;2022-07-23T03:37:34;13.50;;;8.73;;
46399;SDS011;32104;50.838;4.388;2022-07-23T03:40:00;16.38;;;9.13;;
46399;SDS011;32104;50.838;4.388;2022-07-23T03:42:26;16.63;;;8.88;;
46399;SDS011;32104;50.838;4.388;2022-07-23T03:44:52;19.05;;;9.80;;
46399;SDS011;32104;50.838;4.388;2022-07-23T03:47:17;20.70;;;9.15;;
46399;SDS011;32104;50.838;4.388;2022-07-23T03:49:46;16.85;;;8.73;;
46399;SDS011;32104;50.838;4.388;2022-07-23T03:52:13;14.63;;;8.32;;
46399;SDS011;32104;50.838;4.388;2022-07-23T03:54:45;15.48;;;8.07;;
46399;SDS011;32104;50.838;4.388;2022-07-23T03:57:11;19.67;;;9.32;;
46399;SDS011;32104;50.838;4.388;2022-07-23T03:59:36;16.50;;;8.55;;
46399;SDS011;32104;50.838;4.388;2022-07-23T04:02:02;20.08;;;9.25;;
46399;SDS011;32104;50.838;4.388;2022-07-23T04:04:39;20.50;;;10.13;;
46399;SDS011;32104;50.838;4.388;2022-07-23T04:07:05;16.10;;;8.73;;
46399;SDS011;32104;50.838;4.388;2022-07-23T04:09:32;19.50;;;9.13;;
46399;SDS011;32104;50.838;4.388;2022-07-23T04:12:02;15.38;;;8.73;;
46399;SDS011;32104;50.838;4.388;2022-07-23T04:14:28;20.02;;;9.32;;
46399;SDS011;32104;50.838;4.388;2022-07-23T04:16:55;14.57;;;8.30;;
46399;SDS011;32104;50.838;4.388;2022-07-23T04:19:22;17.10;;;8.85;;
46399;SDS011;32104;50.838;4.388;2022-07-23T04:21:48;17.17;;;8.50;;
46399;SDS011;32104;50.838;4.388;2022-07-23T04:24:17;16.65;;;8.07;;
46399;SDS011;32104;50.838;4.388;2022-07-23T04:26:43;18.90;;;9.98;;
46399;SDS011;32104;50.838;4.388;2022-07-23T04:29:10;19.13;;;9.52;;
46399;SDS011;32104;50.838;4.388;2022-07-23T04:31:38;18.83;;;8.73;;
46399;SDS011;32104;50.838;4.388;2022-07-23T04:34:04;14.07;;;8.55;;
46399;SDS011;32104;50.838;4.388;2022-07-23T04:36:30;18.08;;;9.27;;
46399;SDS011;32104;50.838;4.388;2022-07-23T04:38:57;22.60;;;9.13;;
46399;SDS011;32104;50.838;4.388;2022-07-23T04:41:22;17.33;;;7.85;;
46399;SDS011;32104;50.838;4.388;2022-07-23T04:43:48;14.27;;;8.85;;
46399;SDS011;32104;50.838;4.388;2022-07-23T04:46:15;15.45;;;8.90;;
46399;SDS011;32104;50.838;4.388;2022-07-23T04:48:41;19.10;;;8.85;;
46399;SDS011;32104;50.838;4.388;2022-07-23T04:51:07;17.48;;;8.27;;
46399;SDS011;32104;50.838;4.388;2022-07-23T04:53:38;17.23;;;8.48;;
46399;SDS011;32104;50.838;4.388;2022-07-23T04:56:04;13.43;;;8.10;;
46399;SDS011;32104;50.838;4.388;2022-07-23T04:58:30;17.27;;;7.85;;
46399;SDS011;32104;50.838;4.388;2022-07-23T05:03:26;13.25;;;7.50;;
46399;SDS011;32104;50.838;4.388;2022-07-23T05:05:55;14.50;;;7.50;;
46399;SDS011;32104;50.838;4.388;2022-07-23T05:08:22;11.85;;;6.60;;
46399;SDS011;32104;50.838;4.388;2022-07-23T05:10:48;17.55;;;7.45;;
46399;SDS011;32104;50.838;4.388;2022-07-23T05:13:17;11.43;;;6.57;;
46399;SDS011;32104;50.838;4.388;2022-07-23T05:15:44;10.98;;;6.10;;
46399;SDS011;32104;50.838;4.388;2022-07-23T05:18:13;15.48;;;7.80;;
46399;SDS011;32104;50.838;4.388;2022-07-23T05:20:39;10.07;;;6.07;;
46399;SDS011;32104;50.838;4.388;2022-07-23T05:23:08;15.57;;;6.82;;
46399;SDS011;32104;50.838;4.388;2022-07-23T05:25:37;12.70;;;6.07;;
46399;SDS011;32104;50.838;4.388;2022-07-23T05:28:02;14.32;;;5.68;;
46399;SDS011;32104;50.838;4.388;2022-07-23T05:30:34;15.45;;;7.22;;
46399;SDS011;32104;50.838;4.388;2022-07-23T05:33:00;10.63;;;5.60;;
46399;SDS011;32104;50.838;4.388;2022-07-23T05:35:26;15.02;;;6.47;;
46399;SDS011;32104;50.838;4.388;2022-07-23T05:37:58;13.18;;;6.40;;
46399;SDS011;32104;50.838;4.388;2022-07-23T05:40:24;11.63;;;6.13;;
46399;SDS011;32104;50.838;4.388;2022-07-23T05:42:50;12.13;;;6.05;;
46399;SDS011;32104;50.838;4.388;2022-07-23T05:45:17;14.98;;;5.97;;
46399;SDS011;32104;50.838;4.388;2022-07-23T05:47:44;13.35;;;6.38;;
46399;SDS011;32104;50.838;4.388;2022-07-23T05:50:15;11.65;;;6.38;;
46399;SDS011;32104;50.838;4.388;2022-07-23T05:52:42;14.35;;;6.18;;
46399;SDS011;32104;50.838;4.388;2022-07-23T05:55:09;12.73;;;6.32;;
46399;SDS011;32104;50.838;4.388;2022-07-23T05:57:38;12.25;;;7.15;;
46399;SDS011;32104;50.838;4.388;2022-07-23T06:00:05;13.10;;;6.70;;
46399;SDS011;32104;50.838;4.388;2022-07-23T06:02:36;13.95;;;6.47;;
46399;SDS011;32104;50.838;4.388;2022-07-23T06:05:02;13.50;;;6.00;;
46399;SDS011;32104;50.838;4.388;2022-07-23T06:07:28;16.45;;;6.63;;
46399;SDS011;32104;50.838;4.388;2022-07-23T06:09:54;16.35;;;6.82;;
46399;SDS011;32104;50.838;4.388;2022-07-23T06:12:26;12.35;;;7.47;;
46399;SDS011;32104;50.838;4.388;2022-07-23T06:14:52;10.32;;;6.43;;
46399;SDS011;32104;50.838;4.388;2022-07-23T06:17:18;13.27;;;7.00;;
46399;SDS011;32104;50.838;4.388;2022-07-23T06:19:44;11.20;;;6.88;;
46399;SDS011;32104;50.838;4.388;2022-07-23T06:22:10;11.18;;;6.75;;
46399;SDS011;32104;50.838;4.388;2022-07-23T06:24:36;14.15;;;6.72;;
46399;SDS011;32104;50.838;4.388;2022-07-23T06:27:02;11.18;;;6.65;;
46399;SDS011;32104;50.838;4.388;2022-07-23T06:29:29;7.88;;;5.75;;
46399;SDS011;32104;50.838;4.388;2022-07-23T06:31:55;12.32;;;5.63;;
46399;SDS011;32104;50.838;4.388;2022-07-23T06:34:21;14.20;;;6.50;;
46399;SDS011;32104;50.838;4.388;2022-07-23T06:36:49;15.50;;;6.50;;
46399;SDS011;32104;50.838;4.388;2022-07-23T06:39:15;15.55;;;5.53;;
46399;SDS011;32104;50.838;4.388;2022-07-23T06:41:41;15.77;;;6.50;;
46399;SDS011;32104;50.838;4.388;2022-07-23T06:44:07;8.90;;;5.60;;
46399;SDS011;32104;50.838;4.388;2022-07-23T06:46:35;12.25;;;5.65;;
46399;SDS011;32104;50.838;4.388;2022-07-23T06:49:01;12.05;;;5.97;;
46399;SDS011;32104;50.838;4.388;2022-07-23T06:51:30;14.00;;;5.75;;
46399;SDS011;32104;50.838;4.388;2022-07-23T06:53:55;9.00;;;5.10;;
46399;SDS011;32104;50.838;4.388;2022-07-23T06:56:23;10.32;;;5.47;;
46399;SDS011;32104;50.838;4.388;2022-07-23T06:58:49;9.80;;;5.65;;
46399;SDS011;32104;50.838;4.388;2022-07-23T07:01:15;10.73;;;5.25;;
46399;SDS011;32104;50.838;4.388;2022-07-23T07:03:40;13.30;;;6.57;;
46399;SDS011;32104;50.838;4.388;2022-07-23T07:06:06;14.45;;;5.68;;
46399;SDS011;32104;50.838;4.388;2022-07-23T07:08:32;10.88;;;5.55;;
46399;SDS011;32104;50.838;4.388;2022-07-23T07:10:58;12.15;;;5.28;;
46399;SDS011;32104;50.838;4.388;2022-07-23T07:13:23;11.25;;;5.63;;
46399;SDS011;32104;50.838;4.388;2022-07-23T07:15:50;14.35;;;5.70;;
46399;SDS011;32104;50.838;4.388;2022-07-23T07:18:16;10.35;;;5.28;;
46399;SDS011;32104;50.838;4.388;2022-07-23T07:20:42;11.38;;;4.43;;
46399;SDS011;32104;50.838;4.388;2022-07-23T07:23:07;8.20;;;4.68;;
46399;SDS011;32104;50.838;4.388;2022-07-23T07:25:33;9.05;;;5.05;;
46399;SDS011;32104;50.838;4.388;2022-07-23T07:27:59;11.90;;;5.43;;
46399;SDS011;32104;50.838;4.388;2022-07-23T07:30:25;10.20;;;5.45;;
46399;SDS011;32104;50.838;4.388;2022-07-23T07:32:50;11.88;;;5.60;;
46399;SDS011;32104;50.838;4.388;2022-07-23T07:35:16;10.05;;;5.55;;
46399;SDS011;32104;50.838;4.388;2022-07-23T07:37:42;12.75;;;5.05;;
46399;SDS011;32104;50.838;4.388;2022-07-23T07:40:08;10.98;;;5.32;;
46399;SDS011;32104;50.838;4.388;2022-07-23T07:42:52;10.80;;;5.68;;
46399;SDS011;32104;50.838;4.388;2022-07-23T07:45:19;10.98;;;5.78;;
46399;SDS011;32104;50.838;4.388;2022-07-23T07:50:33;8.70;;;4.90;;
46399;SDS011;32104;50.838;4.388;2022-07-23T07:52:59;10.00;;;5.32;;
46399;SDS011;32104;50.838;4.388;2022-07-23T07:55:24;7.85;;;4.70;;
46399;SDS011;32104;50.838;4.388;2022-07-23T07:57:52;9.05;;;4.03;;
46399;SDS011;32104;50.838;4.388;2022-07-23T08:00:17;8.43;;;4.30;;
46399;SDS011;32104;50.838;4.388;2022-07-23T08:02:46;14.15;;;4.82;;
46399;SDS011;32104;50.838;4.388;2022-07-23T08:05:13;11.32;;;4.13;;
46399;SDS011;32104;50.838;4.388;2022-07-23T08:07:40;10.23;;;4.72;;
46399;SDS011;32104;50.838;4.388;2022-07-23T08:10:09;7.90;;;4.60;;
46399;SDS011;32104;50.838;4.388;2022-07-23T08:12:38;6.93;;;4.03;;
46399;SDS011;32104;50.838;4.388;2022-07-23T08:15:16;7.68;;;3.95;;
46399;SDS011;32104;50.838;4.388;2022-07-23T08:17:46;9.60;;;4.00;;
46399;SDS011;32104;50.838;4.388;2022-07-23T08:20:14;8.07;;;3.67;;
46399;SDS011;32104;50.838;4.388;2022-07-23T08:25:31;7.20;;;3.65;;
46399;SDS011;32104;50.838;4.388;2022-07-23T08:27:59;9.55;;;3.47;;
46399;SDS011;32104;50.838;4.388;2022-07-23T08:30:33;9.98;;;3.60;;
46399;SDS011;32104;50.838;4.388;2022-07-23T08:33:03;7.82;;;3.60;;
46399;SDS011;32104;50.838;4.388;2022-07-23T08:35:42;8.77;;;4.15;;
46399;SDS011;32104;50.838;4.388;2022-07-23T08:38:29;11.02;;;3.63;;
46399;SDS011;32104;50.838;4.388;2022-07-23T08:40:55;10.20;;;3.95;;
46399;SDS011;32104;50.838;4.388;2022-07-23T08:43:26;8.57;;;4.07;;
46399;SDS011;32104;50.838;4.388;2022-07-23T08:45:55;7.28;;;3.58;;
46399;SDS011;32104;50.838;4.388;2022-07-23T08:48:24;9.02;;;3.60;;
46399;SDS011;32104;50.838;4.388;2022-07-23T08:50:57;9.10;;;3.90;;
46399;SDS011;32104;50.838;4.388;2022-07-23T08:53:25;6.97;;;3.53;;
46399;SDS011;32104;50.838;4.388;2022-07-23T08:55:53;11.65;;;4.18;;
46399;SDS011;32104;50.838;4.388;2022-07-23T08:58:24;8.23;;;3.92;;
46399;SDS011;32104;50.838;4.388;2022-07-23T09:00:51;7.93;;;3.60;;
46399;SDS011;32104;50.838;4.388;2022-07-23T09:03:21;5.95;;;3.20;;
46399;SDS011;32104;50.838;4.388;2022-07-23T09:05:52;5.45;;;3.25;;
46399;SDS011;32104;50.838;4.388;2022-07-23T09:08:19;7.18;;;3.75;;
46399;SDS011;32104;50.838;4.388;2022-07-23T09:10:53;6.95;;;3.35;;
46399;SDS011;32104;50.838;4.388;2022-07-23T09:13:38;8.07;;;3.67;;
46399;SDS011;32104;50.838;4.388;2022-07-23T09:16:11;4.90;;;2.60;;
46399;SDS011;32104;50.838;4.388;2022-07-23T09:18:47;6.60;;;2.60;;
46399;SDS011;32104;50.838;4.388;2022-07-23T09:24:13;3.05;;;1.67;;
46399;SDS011;32104;50.838;4.388;2022-07-23T09:26:43;4.68;;;2.03;;
46399;SDS011;32104;50.838;4.388;2022-07-23T09:34:30;3.85;;;2.03;;
46399;SDS011;32104;50.838;4.388;2022-07-23T09:37:11;5.88;;;2.67;;
46399;SDS011;32104;50.838;4.388;2022-07-23T09:39:40;4.78;;;2.80;;
46399;SDS011;32104;50.838;4.388;2022-07-23T09:42:18;4.93;;;2.42;;
46399;SDS011;32104;50.838;4.388;2022-07-23T09:44:46;9.55;;;2.85;;
46399;SDS011;32104;50.838;4.388;2022-07-23T09:47:13;5.35;;;2.45;;
46399;SDS011;32104;50.838;4.388;2022-07-23T09:49:39;8.93;;;2.53;;
46399;SDS011;32104;50.838;4.388;2022-07-23T09:52:05;5.43;;;2.30;;
46399;SDS011;32104;50.838;4.388;2022-07-23T09:54:39;6.20;;;2.17;;
46399;SDS011;32104;50.838;4.388;2022-07-23T09:57:11;5.97;;;2.50;;
46399;SDS011;32104;50.838;4.388;2022-07-23T09:59:42;5.43;;;1.88;;
46399;SDS011;32104;50.838;4.388;2022-07-23T10:02:11;3.40;;;1.88;;
46399;SDS011;32104;50.838;4.388;2022-07-23T10:04:39;3.38;;;1.98;;
46399;SDS011;32104;50.838;4.388;2022-07-23T10:07:07;5.70;;;1.83;;
46399;SDS011;32104;50.838;4.388;2022-07-23T10:09:36;4.15;;;1.83;;
46399;SDS011;32104;50.838;4.388;2022-07-23T10:12:04;5.78;;;2.05;;
46399;SDS011;32104;50.838;4.388;2022-07-23T10:14:46;5.93;;;2.17;;
46399;SDS011;32104;50.838;4.388;2022-07-23T10:17:13;4.82;;;1.77;;
46399;SDS011;32104;50.838;4.388;2022-07-23T10:19:38;3.70;;;1.58;;
46399;SDS011;32104;50.838;4.388;2022-07-23T10:22:15;3.40;;;1.50;;
46399;SDS011;32104;50.838;4.388;2022-07-23T10:33:48;2.80;;;1.55;;
46399;SDS011;32104;50.838;4.388;2022-07-23T10:36:42;2.88;;;1.40;;
46399;SDS011;32104;50.838;4.388;2022-07-23T10:39:34;4.13;;;1.95;;
46399;SDS011;32104;50.838;4.388;2022-07-23T10:42:13;6.18;;;1.80;;
46399;SDS011;32104;50.838;4.388;2022-07-23T10:44:44;2.88;;;1.55;;
46399;SDS011;32104;50.838;4.388;2022-07-23T10:47:12;4.10;;;2.20;;
46399;SDS011;32104;50.838;4.388;2022-07-23T10:58:04;3.95;;;1.63;;
46399;SDS011;32104;50.838;4.388;2022-07-23T11:00:31;2.58;;;1.33;;
46399;SDS011;32104;50.838;4.388;2022-07-23T11:03:02;4.38;;;2.03;;
46399;SDS011;32104;50.838;4.388;2022-07-23T11:05:48;2.47;;;1.67;;
46399;SDS011;32104;50.838;4.388;2022-07-23T11:08:15;4.57;;;2.10;;
46399;SDS011;32104;50.838;4.388;2022-07-23T11:10:49;6.40;;;2.15;;
46399;SDS011;32104;50.838;4.388;2022-07-23T11:13:31;4.32;;;1.52;;
46399;SDS011;32104;50.838;4.388;2022-07-23T11:32:00;1.92;;;1.10;;
46399;SDS011;32104;50.838;4.388;2022-07-23T11:36:58;3.10;;;1.45;;
46399;SDS011;32104;50.838;4.388;2022-07-23T11:39:26;3.30;;;1.55;;
46399;SDS011;32104;50.838;4.388;2022-07-23T11:42:00;4.93;;;1.90;;
46399;SDS011;32104;50.838;4.388;2022-07-23T11:44:32;1.65;;;1.10;;
46399;SDS011;32104;50.838;4.388;2022-07-23T11:47:03;2.80;;;1.40;;
46399;SDS011;32104;50.838;4.388;2022-07-23T11:49:35;5.70;;;1.48;;
46399;SDS011;32104;50.838;4.388;2022-07-23T11:52:17;3.38;;;1.30;;
46399;SDS011;32104;50.838;4.388;2022-07-23T11:54:49;5.93;;;2.65;;
46399;SDS011;32104;50.838;4.388;2022-07-23T11:57:15;2.95;;;1.48;;
46399;SDS011;32104;50.838;4.388;2022-07-23T11:59:42;5.15;;;2.10;;
46399;SDS011;32104;50.838;4.388;2022-07-23T12:02:10;3.03;;;1.48;;
46399;SDS011;32104;50.838;4.388;2022-07-23T12:04:46;2.50;;;1.48;;
46399;SDS011;32104;50.838;4.388;2022-07-23T12:09:49;5.20;;;1.85;;
46399;SDS011;32104;50.838;4.388;2022-07-23T12:12:15;4.70;;;1.70;;
46399;SDS011;32104;50.838;4.388;2022-07-23T12:15:14;5.78;;;2.03;;
46399;SDS011;32104;50.838;4.388;2022-07-23T12:17:34;3.40;;;1.67;;
46399;SDS011;32104;50.838;4.388;2022-07-23T12:20:03;2.10;;;1.23;;
46399;SDS011;32104;50.838;4.388;2022-07-23T12:22:49;2.50;;;1.27;;
46399;SDS011;32104;50.838;4.388;2022-07-23T12:25:22;5.90;;;1.50;;
46399;SDS011;32104;50.838;4.388;2022-07-23T12:27:59;2.38;;;1.30;;
46399;SDS011;32104;50.838;4.388;2022-07-23T12:30:37;3.45;;;1.38;;
46399;SDS011;32104;50.838;4.388;2022-07-23T12:33:14;5.45;;;1.95;;
46399;SDS011;32104;50.838;4.388;2022-07-23T12:35:46;2.35;;;1.42;;
46399;SDS011;32104;50.838;4.388;2022-07-23T12:38:17;3.33;;;1.48;;
46399;SDS011;32104;50.838;4.388;2022-07-23T12:40:45;3.08;;;1.48;;
46399;SDS011;32104;50.838;4.388;2022-07-23T12:45:45;2.67;;;1.23;;
46399;SDS011;32104;50.838;4.388;2022-07-23T12:48:17;6.28;;;2.13;;
46399;SDS011;32104;50.838;4.388;2022-07-23T12:50:49;4.07;;;1.48;;
46399;SDS011;32104;50.838;4.388;2022-07-23T12:56:06;4.82;;;1.95;;
46399;SDS011;32104;50.838;4.388;2022-07-23T12:58:56;3.45;;;2.38;;
46399;SDS011;32104;50.838;4.388;2022-07-23T13:01:24;2.65;;;1.40;;
46399;SDS011;32104;50.838;4.388;2022-07-23T13:09:19;5.25;;;2.38;;
46399;SDS011;32104;50.838;4.388;2022-07-23T13:11:53;4.30;;;2.13;;
46399;SDS011;32104;50.838;4.388;2022-07-23T13:14:20;5.20;;;1.92;;
46399;SDS011;32104;50.838;4.388;2022-07-23T13:16:49;2.53;;;1.55;;
46399;SDS011;32104;50.838;4.388;2022-07-23T13:19:17;6.35;;;1.38;;
46399;SDS011;32104;50.838;4.388;2022-07-23T13:21:43;2.55;;;1.50;;
46399;SDS011;32104;50.838;4.388;2022-07-23T13:24:09;2.25;;;1.27;;
46399;SDS011;32104;50.838;4.388;2022-07-23T13:26:36;3.15;;;1.50;;
46399;SDS011;32104;50.838;4.388;2022-07-23T13:29:03;4.30;;;1.30;;
46399;SDS011;32104;50.838;4.388;2022-07-23T13:31:30;2.15;;;1.30;;
46399;SDS011;32104;50.838;4.388;2022-07-23T13:33:58;4.05;;;1.40;;
46399;SDS011;32104;50.838;4.388;2022-07-23T13:36:24;3.92;;;1.20;;
46399;SDS011;32104;50.838;4.388;2022-07-23T13:38:50;1.55;;;0.98;;
46399;SDS011;32104;50.838;4.388;2022-07-23T13:41:16;3.10;;;1.00;;
46399;SDS011;32104;50.838;4.388;2022-07-23T13:43:42;3.83;;;1.10;;
46399;SDS011;32104;50.838;4.388;2022-07-23T13:46:09;1.60;;;1.08;;
46399;SDS011;32104;50.838;4.388;2022-07-23T13:48:34;2.40;;;1.30;;
46399;SDS011;32104;50.838;4.388;2022-07-23T13:51:00;1.70;;;0.93;;
46399;SDS011;32104;50.838;4.388;2022-07-23T13:53:27;3.22;;;1.30;;
46399;SDS011;32104;50.838;4.388;2022-07-23T13:55:55;2.95;;;1.20;;
46399;SDS011;32104;50.838;4.388;2022-07-23T13:58:26;3.92;;;1.27;;
46399;SDS011;32104;50.838;4.388;2022-07-23T14:00:52;3.70;;;1.55;;
46399;SDS011;32104;50.838;4.388;2022-07-23T14:03:18;2.60;;;1.10;;
46399;SDS011;32104;50.838;4.388;2022-07-23T14:05:47;1.10;;;0.90;;
46399;SDS011;32104;50.838;4.388;2022-07-23T14:08:28;2.10;;;1.10;;
46399;SDS011;32104;50.838;4.388;2022-07-23T14:10:54;1.95;;;1.23;;
46399;SDS011;32104;50.838;4.388;2022-07-23T14:13:19;1.63;;;1.05;;
46399;SDS011;32104;50.838;4.388;2022-07-23T14:15:45;1.95;;;1.30;;
46399;SDS011;32104;50.838;4.388;2022-07-23T14:18:13;2.88;;;1.17;;
46399;SDS011;32104;50.838;4.388;2022-07-23T14:20:39;1.58;;;1.10;;
46399;SDS011;32104;50.838;4.388;2022-07-23T14:23:06;4.43;;;1.13;;
46399;SDS011;32104;50.838;4.388;2022-07-23T14:25:31;3.35;;;1.45;;
46399;SDS011;32104;50.838;4.388;2022-07-23T14:27:58;1.77;;;1.00;;
46399;SDS011;32104;50.838;4.388;2022-07-23T14:30:23;2.80;;;0.93;;
46399;SDS011;32104;50.838;4.388;2022-07-23T14:32:50;4.88;;;1.27;;
46399;SDS011;32104;50.838;4.388;2022-07-23T14:35:15;1.65;;;0.90;;
46399;SDS011;32104;50.838;4.388;2022-07-23T14:40:11;6.22;;;1.05;;
46399;SDS011;32104;50.838;4.388;2022-07-23T14:42:37;3.42;;;1.20;;
46399;SDS011;32104;50.838;4.388;2022-07-23T14:45:03;1.20;;;1.10;;
46399;SDS011;32104;50.838;4.388;2022-07-23T14:47:31;2.35;;;1.48;;
46399;SDS011;32104;50.838;4.388;2022-07-23T14:49:57;2.78;;;1.40;;
46399;SDS011;32104;50.838;4.388;2022-07-23T14:52:22;1.58;;;1.17;;
46399;SDS011;32104;50.838;4.388;2022-07-23T14:54:48;1.27;;;1.02;;
46399;SDS011;32104;50.838;4.388;2022-07-23T14:57:19;2.15;;;1.20;;
46399;SDS011;32104;50.838;4.388;2022-07-23T14:59:45;1.45;;;1.33;;
46399;SDS011;32104;50.838;4.388;2022-07-23T15:02:13;2.15;;;1.20;;
46399;SDS011;32104;50.838;4.388;2022-07-23T15:04:39;1.42;;;1.25;;
46399;SDS011;32104;50.838;4.388;2022-07-23T15:07:05;3.33;;;1.27;;
46399;SDS011;32104;50.838;4.388;2022-07-23T15:09:31;1.73;;;1.17;;
46399;SDS011;32104;50.838;4.388;2022-07-23T15:11:57;4.40;;;1.48;;
46399;SDS011;32104;50.838;4.388;2022-07-23T15:14:24;1.90;;;1.20;;
46399;SDS011;32104;50.838;4.388;2022-07-23T15:16:50;2.20;;;1.20;;
46399;SDS011;32104;50.838;4.388;2022-07-23T15:19:16;4.22;;;1.42;;
46399;SDS011;32104;50.838;4.388;2022-07-23T15:21:45;1.60;;;1.17;;
46399;SDS011;32104;50.838;4.388;2022-07-23T15:24:15;3.53;;;1.40;;
46399;SDS011;32104;50.838;4.388;2022-07-23T15:26:41;2.05;;;1.08;;
46399;SDS011;32104;50.838;4.388;2022-07-23T15:29:07;2.72;;;1.48;;
46399;SDS011;32104;50.838;4.388;2022-07-23T15:31:33;1.85;;;1.10;;
46399;SDS011;32104;50.838;4.388;2022-07-23T15:34:01;2.63;;;1.50;;
46399;SDS011;32104;50.838;4.388;2022-07-23T15:36:27;13.57;;;1.75;;
46399;SDS011;32104;50.838;4.388;2022-07-23T15:38:58;2.72;;;1.23;;
46399;SDS011;32104;50.838;4.388;2022-07-23T15:41:24;1.92;;;1.33;;
46399;SDS011;32104;50.838;4.388;2022-07-23T15:43:53;3.20;;;1.83;;
46399;SDS011;32104;50.838;4.388;2022-07-23T15:46:22;1.83;;;1.00;;
46399;SDS011;32104;50.838;4.388;2022-07-23T15:48:48;1.67;;;1.10;;
46399;SDS011;32104;50.838;4.388;2022-07-23T15:51:16;1.65;;;1.10;;
46399;SDS011;32104;50.838;4.388;2022-07-23T15:53:42;3.63;;;1.25;;
46399;SDS011;32104;50.838;4.388;2022-07-23T15:56:09;1.85;;;1.33;;
46399;SDS011;32104;50.838;4.388;2022-07-23T15:58:36;2.60;;;1.67;;
46399;SDS011;32104;50.838;4.388;2022-07-23T16:01:02;2.05;;;1.15;;